createdAt,value
2022-11-27T00:01:23.552Z,63.71
2022-11-27T00:03:50.314Z,64.91
2022-11-27T00:06:17.072Z,64.49
2022-11-27T00:08:43.718Z,64.54
2022-11-27T00:11:10.357Z,63.95
2022-11-27T00:13:36.966Z,64.30
2022-11-27T00:16:03.689Z,64.67
2022-11-27T00:18:30.389Z,63.98
2022-11-27T00:20:57.054Z,63.96
2022-11-27T00:23:23.674Z,64.17
2022-11-27T00:25:50.303Z,64.74
2022-11-27T00:28:16.947Z,64.09
2022-11-27T00:30:43.599Z,64.65
2022-11-27T00:33:10.229Z,65.21
2022-11-27T00:35:36.865Z,65.19
2022-11-27T00:38:03.554Z,65.56
2022-11-27T00:40:30.151Z,65.11
2022-11-27T00:42:56.760Z,64.89
2022-11-27T00:45:23.411Z,64.56
2022-11-27T00:47:50.079Z,65.07
2022-11-27T00:50:16.727Z,64.49
2022-11-27T00:52:43.390Z,64.39
2022-11-27T00:55:10.034Z,64.86
2022-11-27T00:57:36.674Z,64.40
2022-11-27T01:00:03.327Z,64.90
2022-11-27T01:02:29.987Z,65.13
2022-11-27T01:04:56.609Z,65.06
2022-11-27T01:07:23.331Z,64.31
2022-11-27T01:09:49.974Z,64.73
2022-11-27T01:12:16.624Z,65.28
2022-11-27T01:14:43.233Z,65.65
2022-11-27T01:17:09.846Z,64.98
2022-11-27T01:19:38.601Z,64.31
2022-11-27T01:22:05.266Z,64.21
2022-11-27T01:24:31.926Z,64.56
2022-11-27T01:26:58.564Z,64.01
2022-11-27T01:29:25.172Z,63.91
2022-11-27T01:31:51.790Z,64.48
2022-11-27T01:34:18.376Z,64.04
2022-11-27T01:36:45.002Z,63.78
2022-11-27T01:39:11.589Z,64.60
2022-11-27T01:41:38.253Z,64.60
2022-11-27T01:44:04.895Z,64.57
2022-11-27T01:46:31.621Z,64.94
2022-11-27T01:48:58.351Z,64.63
2022-11-27T01:51:24.975Z,64.95
2022-11-27T01:53:51.617Z,64.72
2022-11-27T01:56:18.206Z,65.00
2022-11-27T01:58:44.820Z,65.13
2022-11-27T02:01:11.459Z,65.21
2022-11-27T02:03:38.095Z,64.74
2022-11-27T02:06:04.708Z,64.51
2022-11-27T02:08:31.405Z,64.23
2022-11-27T02:10:58.021Z,64.15
2022-11-27T02:13:24.596Z,63.97
2022-11-27T02:15:51.269Z,64.15
2022-11-27T02:18:17.896Z,63.13
2022-11-27T02:20:44.501Z,64.08
2022-11-27T02:23:11.100Z,64.48
2022-11-27T02:25:37.730Z,64.41
2022-11-27T02:28:04.363Z,64.52
2022-11-27T02:30:30.959Z,64.58
2022-11-27T02:32:57.624Z,64.60
2022-11-27T02:35:24.270Z,63.95
2022-11-27T02:37:50.908Z,64.83
2022-11-27T02:40:17.533Z,64.91
2022-11-27T02:42:44.156Z,64.15
2022-11-27T02:45:10.840Z,65.56
2022-11-27T02:47:37.462Z,64.34
2022-11-27T02:50:04.113Z,64.49
2022-11-27T02:52:30.757Z,63.52
2022-11-27T02:54:57.434Z,63.74
2022-11-27T02:57:24.012Z,64.00
2022-11-27T02:59:50.615Z,63.46
2022-11-27T03:02:17.305Z,64.19
2022-11-27T03:04:43.980Z,64.01
2022-11-27T03:07:10.696Z,63.25
2022-11-27T03:09:37.324Z,64.26
2022-11-27T03:12:03.950Z,64.59
2022-11-27T03:14:30.558Z,64.07
2022-11-27T03:16:57.247Z,63.46
2022-11-27T03:19:23.868Z,64.14
2022-11-27T03:21:50.514Z,63.94
2022-11-27T03:24:17.150Z,63.93
2022-11-27T03:26:43.766Z,64.11
2022-11-27T03:29:10.407Z,64.41
2022-11-27T03:31:37.071Z,64.34
2022-11-27T03:34:03.773Z,64.43
2022-11-27T03:36:30.432Z,65.04
2022-11-27T03:38:57.145Z,64.38
2022-11-27T03:41:23.831Z,64.39
2022-11-27T03:43:50.422Z,63.97
2022-11-27T03:46:17.089Z,64.27
2022-11-27T03:48:43.791Z,65.56
2022-11-27T03:51:10.435Z,66.18
2022-11-27T03:53:37.029Z,65.34
2022-11-27T03:56:09.631Z,64.43
2022-11-27T03:58:36.790Z,63.90
2022-11-27T04:01:03.440Z,63.53
2022-11-27T04:03:30.141Z,63.94
2022-11-27T04:05:56.792Z,63.95
2022-11-27T04:08:23.442Z,64.32
2022-11-27T04:10:50.086Z,64.06
2022-11-27T04:13:16.749Z,64.68
2022-11-27T04:15:43.517Z,65.52
2022-11-27T04:18:10.258Z,65.43
2022-11-27T04:20:36.896Z,65.23
2022-11-27T04:23:03.504Z,64.94
2022-11-27T04:25:30.137Z,65.01
2022-11-27T04:27:56.765Z,64.26
2022-11-27T04:30:23.472Z,64.16
2022-11-27T04:32:50.157Z,64.85
2022-11-27T04:35:16.773Z,64.49
2022-11-27T04:37:43.436Z,64.02
2022-11-27T04:40:10.079Z,65.64
2022-11-27T04:42:36.730Z,65.05
2022-11-27T04:45:03.375Z,65.47
2022-11-27T04:47:30.016Z,64.72
2022-11-27T04:49:56.682Z,64.60
2022-11-27T04:52:23.341Z,65.25
2022-11-27T04:54:49.978Z,65.76
2022-11-27T04:57:16.693Z,65.39
2022-11-27T04:59:43.357Z,65.66
2022-11-27T05:02:09.979Z,65.94
2022-11-27T05:04:36.638Z,65.89
2022-11-27T05:07:03.267Z,65.59
2022-11-27T05:09:29.875Z,65.49
2022-11-27T05:11:56.559Z,65.60
2022-11-27T05:14:23.204Z,64.96
2022-11-27T05:16:49.873Z,66.04
2022-11-27T05:19:17.000Z,65.65
2022-11-27T05:21:43.644Z,64.25
2022-11-27T05:24:10.361Z,65.53
2022-11-27T05:26:36.993Z,64.91
2022-11-27T05:29:03.636Z,64.94
2022-11-27T05:31:30.343Z,65.50
2022-11-27T05:33:57.123Z,64.84
2022-11-27T05:36:23.733Z,65.68
2022-11-27T05:38:50.337Z,65.71
2022-11-27T05:41:16.971Z,65.34
2022-11-27T05:43:43.724Z,65.10
2022-11-27T05:46:10.392Z,65.16
2022-11-27T05:48:37.095Z,65.17
2022-11-27T05:51:03.736Z,64.73
2022-11-27T05:53:30.341Z,65.18
2022-11-27T05:55:56.996Z,65.60
2022-11-27T05:58:23.607Z,65.65
2022-11-27T06:00:50.204Z,65.71
2022-11-27T06:03:16.915Z,65.15
2022-11-27T06:05:43.564Z,65.47
2022-11-27T06:08:10.154Z,65.52
2022-11-27T06:10:36.782Z,65.01
2022-11-27T06:13:03.409Z,65.15
2022-11-27T06:15:30.036Z,64.70
2022-11-27T06:17:56.708Z,65.17
2022-11-27T06:20:23.300Z,65.17
2022-11-27T06:22:49.922Z,64.92
2022-11-27T06:25:16.535Z,64.32
2022-11-27T06:27:43.190Z,64.98
2022-11-27T06:30:09.857Z,64.70
2022-11-27T06:32:36.481Z,64.52
2022-11-27T06:35:03.173Z,64.28
2022-11-27T06:37:29.779Z,63.90
2022-11-27T06:39:56.400Z,63.87
2022-11-27T06:42:22.991Z,65.24
2022-11-27T06:44:49.606Z,64.66
2022-11-27T06:47:16.230Z,64.44
2022-11-27T06:49:42.824Z,63.96
2022-11-27T06:52:09.511Z,64.30
2022-11-27T06:54:36.175Z,63.59
2022-11-27T06:57:02.844Z,64.51
2022-11-27T06:59:29.512Z,64.39
2022-11-27T07:01:56.117Z,64.51
2022-11-27T07:04:22.798Z,63.65
2022-11-27T07:06:49.435Z,64.89
2022-11-27T07:09:16.032Z,65.03
2022-11-27T07:11:42.702Z,64.54
2022-11-27T07:14:09.310Z,64.86
2022-11-27T07:16:36.042Z,65.01
2022-11-27T07:19:02.702Z,64.67
2022-11-27T07:21:29.338Z,63.74
2022-11-27T07:23:55.962Z,64.36
2022-11-27T07:26:22.554Z,64.51
2022-11-27T07:28:49.181Z,66.47
2022-11-27T07:31:15.873Z,65.69
2022-11-27T07:33:42.557Z,65.12
2022-11-27T07:36:09.217Z,64.51
2022-11-27T07:38:35.819Z,63.94
2022-11-27T07:41:02.474Z,65.22
2022-11-27T07:43:29.094Z,64.80
2022-11-27T07:45:55.789Z,65.14
2022-11-27T07:48:22.386Z,64.81
2022-11-27T07:50:49.033Z,64.14
2022-11-27T07:53:15.653Z,64.39
2022-11-27T07:55:43.280Z,65.70
2022-11-27T07:58:09.893Z,65.42
2022-11-27T08:00:36.573Z,64.23
2022-11-27T08:03:03.250Z,63.82
2022-11-27T08:05:29.853Z,63.66
2022-11-27T08:07:56.550Z,63.27
2022-11-27T08:10:23.242Z,62.92
2022-11-27T08:12:49.877Z,62.89
2022-11-27T08:15:16.509Z,62.81
2022-11-27T08:17:43.093Z,62.35
2022-11-27T08:20:09.776Z,62.66
2022-11-27T08:22:36.419Z,62.71
2022-11-27T08:25:03.008Z,62.26
2022-11-27T08:27:29.638Z,61.66
2022-11-27T08:29:56.266Z,61.09
2022-11-27T08:32:22.882Z,61.30
2022-11-27T08:34:49.545Z,60.97
2022-11-27T08:37:16.203Z,60.41
2022-11-27T08:39:42.897Z,60.33
2022-11-27T08:42:10.022Z,60.38
2022-11-27T08:44:36.653Z,60.86
2022-11-27T08:47:03.272Z,60.56
2022-11-27T08:49:29.879Z,60.43
2022-11-27T08:51:56.495Z,59.95
2022-11-27T08:54:23.108Z,59.67
2022-11-27T08:56:49.708Z,59.08
2022-11-27T08:59:16.313Z,59.62
2022-11-27T09:01:42.920Z,59.27
2022-11-27T09:04:09.630Z,59.20
2022-11-27T09:06:36.387Z,59.25
2022-11-27T09:09:03.035Z,59.24
2022-11-27T09:11:29.653Z,58.64
2022-11-27T09:13:56.247Z,58.31
2022-11-27T09:16:23.032Z,58.33
2022-11-27T09:18:49.767Z,58.04
2022-11-27T09:21:16.425Z,57.06
2022-11-27T09:23:43.066Z,57.38
2022-11-27T09:26:09.770Z,57.35
2022-11-27T09:28:36.446Z,57.42
2022-11-27T09:31:03.113Z,56.62
2022-11-27T09:33:29.750Z,56.63
2022-11-27T09:35:56.418Z,57.25
2022-11-27T09:38:23.063Z,56.60
2022-11-27T09:40:49.687Z,56.78
2022-11-27T09:43:16.341Z,55.92
2022-11-27T09:45:43.036Z,55.85
2022-11-27T09:48:09.694Z,55.76
2022-11-27T09:50:36.332Z,55.54
2022-11-27T09:53:03.020Z,55.54
2022-11-27T09:55:29.623Z,55.50
2022-11-27T09:57:56.248Z,55.06
2022-11-27T10:00:22.927Z,55.49
2022-11-27T10:02:49.685Z,54.35
2022-11-27T10:05:17.199Z,53.94
2022-11-27T10:07:44.370Z,54.18
2022-11-27T10:10:11.084Z,53.63
2022-11-27T10:12:37.730Z,53.68
2022-11-27T10:15:04.393Z,53.78
2022-11-27T10:17:31.042Z,52.76
2022-11-27T10:19:57.678Z,52.61
2022-11-27T10:22:24.298Z,53.02
2022-11-27T10:24:50.919Z,52.21
2022-11-27T10:27:18.815Z,52.22
2022-11-27T10:29:47.348Z,52.41
2022-11-27T10:32:46.792Z,51.20
2022-11-27T10:35:03.460Z,50.72
2022-11-27T10:37:30.169Z,49.93
2022-11-27T10:39:56.851Z,50.56
2022-11-27T10:42:23.589Z,50.18
2022-11-27T10:44:50.255Z,49.44
2022-11-27T10:47:16.911Z,50.77
2022-11-27T10:49:43.572Z,48.86
2022-11-27T10:52:10.165Z,49.62
2022-11-27T10:54:36.823Z,49.40
2022-11-27T10:57:03.462Z,48.87
2022-11-27T10:59:33.178Z,48.31
2022-11-27T11:02:01.500Z,48.12
2022-11-27T11:04:43.525Z,47.80
2022-11-27T11:07:10.161Z,48.41
2022-11-27T11:09:36.774Z,47.78
2022-11-27T11:12:03.444Z,47.56
2022-11-27T11:14:30.033Z,47.25
2022-11-27T11:16:56.822Z,48.11
2022-11-27T11:19:23.484Z,47.83
2022-11-27T11:21:50.146Z,47.61
2022-11-27T11:24:16.828Z,50.02
2022-11-27T11:26:43.515Z,48.10
2022-11-27T11:29:10.180Z,49.90
2022-11-27T11:31:36.828Z,50.22
2022-11-27T11:34:03.594Z,51.05
2022-11-27T11:36:30.243Z,50.94
2022-11-27T11:38:56.883Z,49.60
2022-11-27T11:41:23.776Z,48.48
2022-11-27T11:43:50.456Z,47.42
2022-11-27T11:46:17.232Z,46.91
2022-11-27T11:48:43.970Z,46.52
2022-11-27T11:51:10.611Z,45.53
2022-11-27T11:53:37.255Z,45.03
2022-11-27T11:56:03.894Z,46.16
2022-11-27T11:58:30.489Z,46.11
2022-11-27T12:01:26.475Z,47.06
2022-11-27T12:03:43.791Z,48.45
2022-11-27T12:06:10.467Z,47.15
2022-11-27T12:08:37.130Z,46.27
2022-11-27T12:11:03.798Z,45.27
2022-11-27T12:13:33.156Z,45.73
2022-11-27T12:16:00.037Z,45.81
2022-11-27T12:18:26.637Z,47.41
2022-11-27T12:20:53.301Z,48.22
2022-11-27T12:23:19.937Z,48.22
2022-11-27T12:25:46.549Z,47.92
2022-11-27T12:28:13.246Z,47.20
2022-11-27T12:30:39.976Z,45.78
2022-11-27T12:33:06.626Z,47.47
2022-11-27T12:35:33.246Z,47.93
2022-11-27T12:38:00.233Z,47.32
2022-11-27T12:40:26.992Z,45.15
2022-11-27T12:42:53.598Z,45.70
2022-11-27T12:45:20.237Z,46.01
2022-11-27T12:47:46.863Z,45.33
2022-11-27T12:50:13.576Z,44.61
2022-11-27T12:52:40.244Z,44.58
2022-11-27T12:55:06.879Z,43.60
2022-11-27T12:57:33.547Z,43.02
2022-11-27T13:00:00.224Z,43.35
2022-11-27T13:02:27.040Z,44.65
2022-11-27T13:04:54.260Z,45.57
2022-11-27T13:07:20.996Z,45.71
2022-11-27T13:09:47.619Z,44.58
2022-11-27T13:12:14.298Z,44.68
2022-11-27T13:14:41.167Z,45.38
2022-11-27T13:17:07.894Z,45.31
2022-11-27T13:19:34.535Z,45.08
2022-11-27T13:22:01.182Z,45.53
2022-11-27T13:24:27.822Z,47.10
2022-11-27T13:26:54.460Z,45.45
2022-11-27T13:29:21.115Z,45.60
2022-11-27T13:31:47.816Z,44.79
2022-11-27T13:34:14.501Z,45.99
2022-11-27T13:36:41.099Z,46.11
2022-11-27T13:39:07.737Z,45.65
2022-11-27T13:41:34.401Z,44.96
2022-11-27T13:44:01.061Z,44.54
2022-11-27T13:46:27.726Z,45.60
2022-11-27T13:48:54.343Z,45.82
2022-11-27T13:51:20.953Z,46.26
2022-11-27T13:53:47.597Z,47.78
2022-11-27T13:56:14.238Z,47.88
2022-11-27T13:58:40.865Z,47.56
2022-11-27T14:01:07.569Z,48.24
2022-11-27T14:03:34.311Z,48.56
2022-11-27T14:06:00.979Z,48.48
2022-11-27T14:08:27.615Z,47.98
2022-11-27T14:10:54.251Z,47.80
2022-11-27T14:13:24.888Z,47.14
2022-11-27T14:15:54.267Z,48.05
2022-11-27T14:18:20.956Z,48.19
2022-11-27T14:20:47.597Z,48.03
2022-11-27T14:23:14.344Z,47.85
2022-11-27T14:25:41.101Z,48.05
2022-11-27T14:28:07.727Z,48.22
2022-11-27T14:30:34.363Z,48.10
2022-11-27T14:33:01.026Z,48.53
2022-11-27T14:35:27.635Z,48.57
2022-11-27T14:37:54.299Z,48.50
2022-11-27T14:40:20.967Z,49.16
2022-11-27T14:42:47.632Z,49.24
2022-11-27T14:45:14.239Z,50.25
2022-11-27T14:47:40.859Z,50.14
2022-11-27T14:50:07.503Z,50.42
2022-11-27T14:52:34.245Z,50.63
2022-11-27T14:55:00.915Z,51.17
2022-11-27T14:57:27.576Z,51.47
2022-11-27T14:59:54.219Z,51.65
2022-11-27T15:02:26.057Z,51.30
2022-11-27T15:04:55.506Z,51.60
2022-11-27T15:07:22.290Z,52.13
2022-11-27T15:09:49.416Z,52.33
2022-11-27T15:12:16.266Z,52.95
2022-11-27T15:14:42.890Z,53.06
2022-11-27T15:17:09.630Z,53.38
2022-11-27T15:19:36.273Z,54.06
2022-11-27T15:22:02.905Z,53.40
2022-11-27T15:24:29.523Z,54.02
2022-11-27T15:26:56.185Z,53.97
2022-11-27T15:29:22.811Z,54.52
2022-11-27T15:31:49.507Z,54.24
2022-11-27T15:34:16.199Z,54.89
2022-11-27T15:36:42.802Z,55.45
2022-11-27T15:39:09.479Z,54.78
2022-11-27T15:41:40.850Z,54.81
2022-11-27T15:44:10.064Z,55.39
2022-11-27T15:46:36.818Z,55.27
2022-11-27T15:49:03.455Z,55.46
2022-11-27T15:51:30.037Z,55.98
2022-11-27T15:53:56.712Z,56.18
2022-11-27T15:56:23.360Z,56.35
2022-11-27T15:58:50.067Z,56.39
2022-11-27T16:01:16.908Z,56.27
2022-11-27T16:03:43.591Z,56.21
2022-11-27T16:06:10.257Z,56.25
2022-11-27T16:08:38.711Z,55.83
2022-11-27T16:11:05.437Z,56.04
2022-11-27T16:13:32.091Z,56.54
2022-11-27T16:15:58.772Z,56.44
2022-11-27T16:18:25.434Z,56.49
2022-11-27T16:20:52.054Z,56.49
2022-11-27T16:23:18.682Z,56.92
2022-11-27T16:25:45.279Z,57.47
2022-11-27T16:28:11.909Z,57.67
2022-11-27T16:30:41.679Z,57.86
2022-11-27T16:33:08.348Z,57.92
2022-11-27T16:35:34.989Z,58.18
2022-11-27T16:38:01.616Z,57.72
2022-11-27T16:40:28.242Z,57.65
2022-11-27T16:42:54.901Z,57.72
2022-11-27T16:45:21.631Z,58.01
2022-11-27T16:47:48.314Z,58.05
2022-11-27T16:50:14.976Z,57.63
2022-11-27T16:52:41.574Z,57.42
2022-11-27T16:55:08.237Z,57.70
2022-11-27T16:57:34.866Z,57.67
2022-11-27T17:00:01.615Z,58.39
2022-11-27T17:02:28.398Z,58.23
2022-11-27T17:04:54.998Z,58.84
2022-11-27T17:07:21.704Z,58.65
2022-11-27T17:09:48.336Z,58.94
2022-11-27T17:12:14.946Z,58.78
2022-11-27T17:14:41.992Z,58.43
2022-11-27T17:17:08.841Z,58.98
2022-11-27T17:19:35.450Z,58.98
2022-11-27T17:22:02.103Z,59.39
2022-11-27T17:24:28.739Z,59.05
2022-11-27T17:26:55.456Z,58.99
2022-11-27T17:29:22.116Z,59.38
2022-11-27T17:31:48.874Z,59.15
2022-11-27T17:34:15.597Z,59.64
2022-11-27T17:36:42.237Z,59.78
2022-11-27T17:39:08.899Z,61.10
2022-11-27T17:41:35.526Z,60.58
2022-11-27T17:44:02.121Z,60.53
2022-11-27T17:46:28.740Z,59.59
2022-11-27T17:48:55.354Z,59.61
2022-11-27T17:51:22.211Z,60.22
2022-11-27T17:53:48.880Z,60.65
2022-11-27T17:56:15.538Z,60.66
2022-11-27T17:58:42.198Z,60.05
2022-11-27T18:01:08.900Z,59.97
2022-11-27T18:03:35.528Z,59.73
2022-11-27T18:06:02.216Z,59.15
2022-11-27T18:08:28.829Z,59.92
2022-11-27T18:10:55.872Z,60.14
2022-11-27T18:13:22.629Z,59.72
2022-11-27T18:15:49.267Z,60.36
2022-11-27T18:18:15.901Z,60.41
2022-11-27T18:20:42.596Z,60.19
2022-11-27T18:23:09.242Z,60.78
2022-11-27T18:25:35.884Z,60.14
2022-11-27T18:28:02.460Z,61.42
2022-11-27T18:30:29.139Z,62.21
2022-11-27T18:32:55.809Z,61.25
2022-11-27T18:35:22.484Z,61.02
2022-11-27T18:37:49.178Z,61.08
2022-11-27T18:40:15.803Z,59.89
2022-11-27T18:42:42.446Z,60.34
2022-11-27T18:45:25.313Z,62.48
2022-11-27T18:47:55.710Z,62.78
2022-11-27T18:50:25.562Z,61.99
2022-11-27T18:52:56.052Z,61.03
2022-11-27T18:55:22.686Z,60.59
2022-11-27T18:57:49.328Z,61.15
2022-11-27T19:00:15.945Z,61.49
2022-11-27T19:02:42.657Z,61.64
2022-11-27T19:05:09.313Z,61.76
2022-11-27T19:07:36.042Z,62.04
2022-11-27T19:10:02.789Z,63.67
2022-11-27T19:12:29.433Z,62.77
2022-11-27T19:14:56.064Z,62.15
2022-11-27T19:17:24.727Z,62.00
2022-11-27T19:19:55.094Z,61.27
2022-11-27T19:22:21.933Z,60.82
2022-11-27T19:24:48.574Z,61.78
2022-11-27T19:27:15.241Z,61.86
2022-11-27T19:29:41.992Z,61.29
2022-11-27T19:32:08.876Z,61.08
2022-11-27T19:34:35.634Z,60.63
2022-11-27T19:37:02.310Z,61.48
2022-11-27T19:39:29.161Z,62.18
2022-11-27T19:41:55.774Z,62.39
2022-11-27T19:44:22.588Z,61.31
2022-11-27T19:46:49.405Z,61.13
2022-11-27T19:49:16.036Z,61.73
2022-11-27T19:51:42.781Z,61.51
2022-11-27T19:54:10.569Z,61.55
2022-11-27T19:56:37.432Z,62.00
2022-11-27T19:59:04.080Z,62.36
2022-11-27T20:01:30.836Z,62.61
2022-11-27T20:03:57.506Z,61.74
2022-11-27T20:06:24.204Z,61.53
2022-11-27T20:08:50.862Z,61.91
2022-11-27T20:11:17.468Z,62.93
2022-11-27T20:13:44.147Z,62.70
2022-11-27T20:16:10.815Z,62.47
2022-11-27T20:18:37.494Z,62.82
2022-11-27T20:21:04.099Z,62.01
2022-11-27T20:23:30.841Z,61.69
2022-11-27T20:25:57.490Z,61.47
2022-11-27T20:28:24.146Z,61.62
2022-11-27T20:30:50.882Z,62.12
2022-11-27T20:33:17.578Z,61.41
2022-11-27T20:35:44.186Z,61.60
2022-11-27T20:38:10.862Z,62.14
2022-11-27T20:40:37.509Z,63.00
2022-11-27T20:43:04.128Z,62.69
2022-11-27T20:45:30.834Z,62.52
2022-11-27T20:47:57.591Z,62.47
2022-11-27T20:50:24.466Z,62.27
2022-11-27T20:52:51.045Z,62.62
2022-11-27T20:55:17.715Z,62.20
2022-11-27T20:57:44.430Z,61.54
2022-11-27T21:00:11.040Z,62.32
2022-11-27T21:02:37.766Z,62.04
2022-11-27T21:05:04.445Z,61.53
2022-11-27T21:07:31.134Z,61.40
2022-11-27T21:09:57.842Z,61.71
2022-11-27T21:12:24.521Z,62.02
2022-11-27T21:14:51.191Z,62.25
2022-11-27T21:17:17.786Z,61.85
2022-11-27T21:19:44.600Z,61.50
2022-11-27T21:22:11.185Z,61.78
2022-11-27T21:24:37.794Z,61.26
2022-11-27T21:27:04.493Z,61.25
2022-11-27T21:29:31.159Z,61.08
2022-11-27T21:31:57.895Z,61.30
2022-11-27T21:34:24.555Z,61.45
2022-11-27T21:36:51.221Z,61.71
2022-11-27T21:39:17.859Z,61.45
2022-11-27T21:41:44.495Z,61.74
2022-11-27T21:44:11.110Z,61.28
2022-11-27T21:46:37.803Z,62.08
2022-11-27T21:49:04.425Z,62.11
2022-11-27T21:51:31.084Z,61.56
2022-11-27T21:53:57.766Z,61.83
2022-11-27T21:56:24.368Z,61.75
2022-11-27T21:58:51.037Z,61.73
2022-11-27T22:01:17.762Z,61.95
2022-11-27T22:03:44.472Z,61.64
2022-11-27T22:06:11.105Z,61.36
2022-11-27T22:08:37.806Z,61.71
2022-11-27T22:11:04.441Z,62.25
2022-11-27T22:13:31.081Z,62.15
2022-11-27T22:15:57.694Z,61.58
2022-11-27T22:18:24.309Z,61.62
2022-11-27T22:20:50.990Z,61.40
2022-11-27T22:23:17.657Z,61.20
2022-11-27T22:25:44.343Z,61.33
2022-11-27T22:28:10.954Z,61.40
2022-11-27T22:30:37.642Z,61.15
2022-11-27T22:33:04.361Z,61.56
2022-11-27T22:35:30.974Z,61.25
2022-11-27T22:37:57.582Z,61.28
2022-11-27T22:40:24.224Z,61.22
2022-11-27T22:42:50.868Z,61.35
2022-11-27T22:45:17.555Z,61.43
2022-11-27T22:47:44.171Z,61.72
2022-11-27T22:50:10.780Z,61.97
2022-11-27T22:52:37.421Z,62.00
2022-11-27T22:55:04.052Z,61.96
2022-11-27T22:57:30.699Z,61.96
2022-11-27T22:59:57.312Z,61.82
2022-11-27T23:02:23.965Z,61.77
2022-11-27T23:04:50.668Z,61.83
2022-11-27T23:07:22.317Z,62.00
2022-11-27T23:09:51.534Z,61.99
2022-11-27T23:12:18.218Z,61.83
2022-11-27T23:14:44.966Z,62.09
2022-11-27T23:17:11.745Z,61.72
2022-11-27T23:19:38.458Z,61.50
2022-11-27T23:22:05.191Z,61.40
2022-11-27T23:24:31.850Z,61.33
2022-11-27T23:26:58.532Z,61.33
2022-11-27T23:29:25.180Z,61.17
2022-11-27T23:31:51.823Z,61.29
2022-11-27T23:34:18.495Z,61.29
2022-11-27T23:36:45.075Z,61.25
2022-11-27T23:39:11.738Z,61.41
2022-11-27T23:41:38.427Z,61.32
2022-11-27T23:44:05.053Z,61.38
2022-11-27T23:46:31.704Z,61.46
2022-11-27T23:48:58.330Z,62.28
2022-11-27T23:51:24.973Z,62.02
2022-11-27T23:53:51.696Z,61.56
2022-11-27T23:56:18.325Z,62.57
2022-11-27T23:58:47.320Z,62.64
